createdAt,value
2022-11-22T00:31:36.260Z,17.40
2022-11-22T00:38:27.639Z,18.58
2022-11-22T00:40:56.256Z,18.20
2022-11-22T00:43:23.505Z,19.08
2022-11-22T00:45:50.684Z,18.08
2022-11-22T00:48:18.043Z,19.95
2022-11-22T00:50:45.179Z,19.13
2022-11-22T01:15:20.490Z,20.13
2022-11-22T01:17:47.732Z,20.38
2022-11-22T01:20:14.945Z,20.05
2022-11-22T01:31:19.562Z,20.63
2022-11-22T01:51:31.182Z,20.02
2022-11-22T01:54:02.262Z,18.90
2022-11-22T01:56:29.859Z,19.38
2022-11-22T02:03:17.480Z,18.80
2022-11-22T02:14:35.242Z,20.05
2022-11-22T02:17:05.169Z,20.05
2022-11-22T02:19:53.655Z,20.25
2022-11-22T02:35:20.629Z,18.67
2022-11-22T02:37:52.727Z,18.27
2022-11-22T02:40:20.564Z,17.88
2022-11-22T03:00:40.765Z,19.67
2022-11-22T03:03:07.966Z,20.35
2022-11-22T03:05:35.172Z,19.63
2022-11-22T03:08:02.375Z,20.83
2022-11-22T03:10:29.608Z,18.30
2022-11-22T03:12:58.418Z,19.92
2022-11-22T03:15:25.940Z,19.45
2022-11-22T03:18:00.512Z,20.52
2022-11-22T03:20:28.444Z,20.42
2022-11-22T03:22:55.938Z,19.23
2022-11-22T03:25:23.246Z,19.95
2022-11-22T03:27:51.657Z,19.95
2022-11-22T03:30:19.050Z,19.40
2022-11-22T03:32:46.468Z,18.98
2022-11-22T03:39:32.952Z,18.02
2022-11-22T03:42:00.222Z,19.55
2022-11-22T03:44:27.514Z,19.35
2022-11-22T03:46:54.791Z,18.38
2022-11-22T03:49:22.020Z,19.48
2022-11-22T03:51:49.304Z,19.98
2022-11-22T03:54:16.559Z,20.35
2022-11-22T03:56:44.175Z,19.85
2022-11-22T03:59:11.353Z,19.33
2022-11-22T04:01:38.778Z,19.17
2022-11-22T04:04:06.067Z,19.23
2022-11-22T04:06:33.556Z,20.77
2022-11-22T04:09:01.024Z,20.27
2022-11-22T04:11:28.542Z,21.65
2022-11-22T04:53:48.951Z,24.67
2022-11-22T06:11:28.666Z,27.52
2022-11-22T07:37:31.328Z,24.65
2022-11-22T07:53:11.622Z,25.05
2022-11-22T08:22:33.537Z,25.88
2022-11-22T08:38:09.128Z,25.67
2022-11-22T08:53:53.876Z,25.00
2022-11-22T08:56:21.070Z,26.42
2022-11-22T08:58:48.421Z,25.42
2022-11-22T09:01:17.840Z,26.00
2022-11-22T09:03:45.423Z,26.40
2022-11-22T09:09:35.847Z,25.33
2022-11-22T09:11:49.448Z,25.13
2022-11-22T09:14:16.693Z,25.40
2022-11-22T09:16:44.012Z,26.55
2022-11-22T09:19:11.183Z,25.73
2022-11-22T09:21:38.533Z,26.75
2022-11-22T09:24:55.310Z,26.05
2022-11-22T09:27:47.627Z,25.75
2022-11-22T09:30:15.281Z,27.33
2022-11-22T09:32:50.993Z,25.98
2022-11-22T09:35:20.154Z,27.27
2022-11-22T09:37:47.535Z,26.45
2022-11-22T09:40:15.761Z,26.10
2022-11-22T09:42:54.420Z,26.48
2022-11-22T09:45:35.848Z,28.17
2022-11-22T09:48:15.136Z,26.35
2022-11-22T09:51:09.387Z,26.15
2022-11-22T09:53:48.147Z,25.48
2022-11-22T09:56:16.986Z,25.30
2022-11-22T09:58:51.624Z,24.85
2022-11-22T10:01:39.037Z,26.93
2022-11-22T10:04:27.763Z,26.85
2022-11-22T10:07:02.176Z,27.33
2022-11-22T10:09:51.821Z,27.95
2022-11-22T10:12:35.226Z,25.73
2022-11-22T10:15:14.631Z,53.33
2022-11-22T10:17:57.933Z,36.15
2022-11-22T10:20:28.078Z,26.02
2022-11-22T10:22:58.929Z,27.98
2022-11-22T10:38:08.504Z,26.45
2022-11-22T10:40:49.395Z,27.08
2022-11-22T10:43:25.609Z,25.42
2022-11-22T10:46:10.402Z,26.23
2022-11-22T10:49:00.923Z,25.60
2022-11-22T10:51:47.596Z,27.92
2022-11-22T10:54:22.684Z,26.20
2022-11-22T10:56:55.539Z,25.77
2022-11-22T10:59:28.782Z,26.38
2022-11-22T11:02:03.950Z,26.65
2022-11-22T11:04:34.713Z,26.52
2022-11-22T11:07:18.711Z,27.67
2022-11-22T11:10:10.754Z,28.05
2022-11-22T11:12:42.251Z,26.95
2022-11-22T11:15:22.652Z,26.40
2022-11-22T11:17:55.373Z,28.58
2022-11-22T11:20:27.653Z,27.63
2022-11-22T11:25:44.045Z,27.27
2022-11-22T11:28:20.291Z,26.70
2022-11-22T11:31:01.421Z,28.20
2022-11-22T11:33:31.199Z,25.33
2022-11-22T12:15:10.705Z,26.50
2022-11-22T12:44:11.403Z,26.17
2022-11-22T13:00:06.621Z,25.40
2022-11-22T15:09:21.648Z,24.80
2022-11-22T15:11:25.621Z,26.42
2022-11-22T15:14:01.472Z,27.48
2022-11-22T15:57:29.419Z,26.35
2022-11-22T15:59:57.463Z,26.30
2022-11-22T16:02:27.592Z,24.80
2022-11-22T16:06:08.488Z,28.30
2022-11-22T16:07:55.435Z,26.33
2022-11-22T16:10:43.003Z,26.70
2022-11-22T16:13:20.214Z,27.02
2022-11-22T16:16:26.406Z,26.13
2022-11-22T16:18:54.390Z,26.33
2022-11-22T16:21:28.872Z,26.40
2022-11-22T16:24:18.522Z,25.92
2022-11-22T16:26:57.027Z,27.67
2022-11-22T16:29:26.222Z,27.13
2022-11-22T18:09:38.367Z,26.73
2022-11-22T18:12:05.885Z,27.02
2022-11-22T18:14:34.534Z,28.00
2022-11-22T18:17:02.033Z,28.63
2022-11-22T18:19:29.648Z,28.30
2022-11-22T18:22:00.137Z,29.10
2022-11-22T18:24:27.407Z,28.02
2022-11-22T18:26:54.644Z,28.67
2022-11-22T18:32:10.482Z,27.42
2022-11-22T18:34:37.797Z,28.13
2022-11-22T18:37:05.274Z,28.38
2022-11-22T18:39:38.451Z,27.48
2022-11-22T18:42:08.285Z,27.20
2022-11-22T18:44:35.556Z,28.42
2022-11-22T18:51:47.063Z,27.88
2022-11-22T18:54:16.122Z,26.02
2022-11-22T18:56:46.159Z,27.80
2022-11-22T18:59:13.720Z,27.85
